Aviation Digital Data Service (ADDS)

Output produced by TAFs form (2018 UTC 30 September 2016)
found at http://www.aviationweather.gov/adds/tafs/
 
KAPA 301953Z 02009KT 10SM BKN100 22/06 A3024 RMK AO2 SLP186 T02170061
KAPA 301832Z 3018/0118 02010KT P6SM BKN100 BKN180 
     FM302000 03008KT P6SM SCT080 OVC140 
     FM302200 31012KT P6SM VCTS BKN070CB BKN150 
     FM010300 21012KT P6SM BKN080 BKN150